createdAt,value
2018-09-18T00:01:49.932Z,6.47
2018-09-18T00:04:18.604Z,6.73
2018-09-18T00:06:47.338Z,6.53
2018-09-18T00:09:16.034Z,6.73
2018-09-18T00:11:44.643Z,6.40
2018-09-18T00:14:13.353Z,6.50
2018-09-18T00:16:42.105Z,6.73
2018-09-18T00:19:10.848Z,6.90
2018-09-18T00:21:39.548Z,6.77
2018-09-18T00:24:08.205Z,6.10
2018-09-18T00:26:36.736Z,6.43
2018-09-18T00:29:05.415Z,6.50
2018-09-18T00:31:34.330Z,6.27
2018-09-18T00:34:03.016Z,5.97
2018-09-18T00:36:31.733Z,6.50
2018-09-18T00:39:00.296Z,6.10
2018-09-18T00:41:28.871Z,6.33
2018-09-18T00:43:57.455Z,6.77
2018-09-18T00:46:26.041Z,6.10
2018-09-18T00:48:54.580Z,6.67
2018-09-18T00:51:23.268Z,6.57
2018-09-18T00:53:51.873Z,6.20
2018-09-18T00:56:20.405Z,6.77
2018-09-18T00:58:49.352Z,6.53
2018-09-18T01:01:17.901Z,6.10
2018-09-18T01:03:46.537Z,6.47
2018-09-18T01:06:15.188Z,6.50
2018-09-18T01:08:43.785Z,6.57
2018-09-18T01:11:14.250Z,6.80
2018-09-18T01:13:43.955Z,6.37
2018-09-18T01:16:12.545Z,6.67
2018-09-18T01:18:42.110Z,6.30
2018-09-18T01:21:11.437Z,6.93
2018-09-18T01:23:40.036Z,6.77
2018-09-18T01:26:08.667Z,7.60
2018-09-18T01:28:37.275Z,7.57
2018-09-18T01:31:06.005Z,7.40
2018-09-18T01:33:35.078Z,7.30
2018-09-18T01:36:04.465Z,6.80
2018-09-18T01:38:33.130Z,7.13
2018-09-18T01:41:01.844Z,7.57
2018-09-18T01:43:30.535Z,8.17
2018-09-18T01:45:59.201Z,8.90
2018-09-18T01:48:27.829Z,8.57
2018-09-18T01:50:56.465Z,7.10
2018-09-18T01:53:25.439Z,7.70
2018-09-18T01:55:54.078Z,9.77
2018-09-18T01:58:28.205Z,11.57
2018-09-18T02:00:56.800Z,12.53
2018-09-18T02:03:25.425Z,13.37
2018-09-18T02:05:54.043Z,15.37
2018-09-18T02:08:22.668Z,14.03
2018-09-18T02:10:51.243Z,13.70
2018-09-18T02:13:19.806Z,16.93
2018-09-18T02:15:48.568Z,16.77
2018-09-18T02:18:17.136Z,11.37
2018-09-18T02:20:45.713Z,8.03
2018-09-18T02:23:14.288Z,8.50
2018-09-18T02:25:43.496Z,8.97
2018-09-18T02:28:12.193Z,9.17
2018-09-18T02:30:40.863Z,8.73
2018-09-18T02:33:09.711Z,9.33
2018-09-18T02:35:38.406Z,8.97
2018-09-18T02:38:07.142Z,9.27
2018-09-18T02:40:35.848Z,9.03
2018-09-18T02:43:04.961Z,9.00
2018-09-18T02:45:33.656Z,9.83
2018-09-18T02:48:02.416Z,9.90
2018-09-18T02:50:32.095Z,9.70
2018-09-18T02:53:00.748Z,10.10
2018-09-18T02:55:29.425Z,10.83
2018-09-18T02:57:58.017Z,10.40
2018-09-18T03:00:26.643Z,10.97
2018-09-18T03:02:55.260Z,10.10
2018-09-18T03:05:23.833Z,9.43
2018-09-18T03:07:52.393Z,10.17
2018-09-18T03:10:20.953Z,9.70
2018-09-18T03:12:49.548Z,10.17
2018-09-18T03:15:18.318Z,10.40
2018-09-18T03:17:46.916Z,9.77
2018-09-18T03:20:15.563Z,9.50
2018-09-18T03:22:44.122Z,10.57
2018-09-18T03:25:12.764Z,10.80
2018-09-18T03:27:41.335Z,11.30
2018-09-18T03:30:09.994Z,11.20
2018-09-18T03:32:38.643Z,11.50
2018-09-18T03:35:07.203Z,10.80
2018-09-18T03:37:35.793Z,11.03
2018-09-18T03:40:04.518Z,11.10
2018-09-18T03:42:33.102Z,10.90
2018-09-18T03:45:01.701Z,11.20
2018-09-18T03:47:30.245Z,11.20
2018-09-18T03:49:58.853Z,10.90
2018-09-18T03:52:27.438Z,10.90
2018-09-18T03:54:56.003Z,11.37
2018-09-18T03:57:24.621Z,10.90
2018-09-18T03:59:53.286Z,11.60
2018-09-18T04:02:22.171Z,12.07
2018-09-18T04:04:51.751Z,12.40
2018-09-18T04:07:20.318Z,12.57
2018-09-18T04:09:48.960Z,11.63
2018-09-18T04:12:17.631Z,11.13
2018-09-18T04:14:46.296Z,12.73
2018-09-18T04:17:15.736Z,12.60
2018-09-18T04:19:44.446Z,12.90
2018-09-18T04:22:13.014Z,12.40
2018-09-18T04:24:41.593Z,12.93
2018-09-18T04:27:11.144Z,12.13
2018-09-18T04:29:39.712Z,12.17
2018-09-18T04:32:08.312Z,12.17
2018-09-18T04:34:36.868Z,12.03
2018-09-18T04:37:05.473Z,11.60
2018-09-18T04:39:35.023Z,10.90
2018-09-18T04:42:03.644Z,11.77
2018-09-18T04:44:32.286Z,11.20
2018-09-18T04:47:00.881Z,10.90
2018-09-18T04:49:29.510Z,10.17
2018-09-18T04:51:58.108Z,10.00
2018-09-18T04:54:26.751Z,10.27
2018-09-18T04:56:55.501Z,10.73
2018-09-18T04:59:24.261Z,9.77
2018-09-18T05:01:53.017Z,9.97
2018-09-18T05:04:22.123Z,10.50
2018-09-18T05:06:50.936Z,10.37
2018-09-18T05:09:19.696Z,10.20
2018-09-18T05:11:48.342Z,9.80
2018-09-18T05:14:17.001Z,9.07
2018-09-18T05:16:45.736Z,9.83
2018-09-18T05:19:14.453Z,10.00
2018-09-18T05:21:43.180Z,10.03
2018-09-18T05:24:11.891Z,9.63
2018-09-18T05:26:40.616Z,9.67
2018-09-18T05:29:09.364Z,9.83
2018-09-18T05:31:38.034Z,9.90
2018-09-18T05:34:06.683Z,10.20
2018-09-18T05:36:35.361Z,11.23
2018-09-18T05:39:05.975Z,11.20
2018-09-18T05:41:34.681Z,9.97
2018-09-18T05:44:03.454Z,10.10
2018-09-18T05:46:32.207Z,10.20
2018-09-18T05:49:00.871Z,9.80
2018-09-18T05:51:29.528Z,10.53
2018-09-18T05:53:58.176Z,10.00
2018-09-18T05:56:26.937Z,9.83
2018-09-18T05:58:55.661Z,9.20
2018-09-18T06:01:24.431Z,9.00
2018-09-18T06:03:53.033Z,9.00
2018-09-18T06:06:21.588Z,9.07
2018-09-18T06:08:50.103Z,9.20
2018-09-18T06:11:18.701Z,9.47
2018-09-18T06:13:47.366Z,9.50
2018-09-18T06:16:16.133Z,9.23
2018-09-18T06:18:44.871Z,8.20
2018-09-18T06:21:14.516Z,7.90
2018-09-18T06:23:43.293Z,7.97
2018-09-18T06:26:12.009Z,8.00
2018-09-18T06:28:40.648Z,7.50
2018-09-18T06:31:09.333Z,7.60
2018-09-18T06:33:37.917Z,7.27
2018-09-18T06:36:06.605Z,7.17
2018-09-18T06:38:35.168Z,6.90
2018-09-18T06:41:03.700Z,8.30
2018-09-18T06:43:32.205Z,8.17
2018-09-18T06:46:00.736Z,8.70
2018-09-18T06:48:29.347Z,8.93
2018-09-18T06:50:57.880Z,9.03
2018-09-18T06:53:26.400Z,9.70
2018-09-18T06:55:54.945Z,9.55
2018-09-18T06:58:23.486Z,8.80
2018-09-18T07:00:52.023Z,8.48
2018-09-18T07:03:20.593Z,8.88
2018-09-18T07:05:49.343Z,8.78
2018-09-18T07:08:18.025Z,8.35
2018-09-18T07:10:46.675Z,7.83
2018-09-18T07:13:15.493Z,7.65
2018-09-18T07:15:44.146Z,7.55
2018-09-18T07:18:12.849Z,7.70
2018-09-18T07:20:41.522Z,7.22
2018-09-18T07:23:10.155Z,7.35
2018-09-18T07:25:38.818Z,6.95
2018-09-18T07:28:07.450Z,6.55
2018-09-18T07:30:36.127Z,6.75
2018-09-18T07:33:04.798Z,7.05
2018-09-18T07:35:33.448Z,6.20
2018-09-18T07:38:02.083Z,6.72
2018-09-18T07:40:30.740Z,6.92
2018-09-18T07:42:59.409Z,6.37
2018-09-18T07:45:28.052Z,6.37
2018-09-18T07:47:56.673Z,6.55
2018-09-18T07:50:25.321Z,6.15
2018-09-18T07:52:53.943Z,6.08
2018-09-18T07:55:28.036Z,6.85
2018-09-18T07:57:56.559Z,6.10
2018-09-18T08:00:25.105Z,7.78
2018-09-18T08:02:53.637Z,5.80
2018-09-18T08:05:22.257Z,5.83
2018-09-18T08:07:50.929Z,5.70
2018-09-18T08:10:19.669Z,6.08
2018-09-18T08:12:48.419Z,5.55
2018-09-18T08:15:17.002Z,6.00
2018-09-18T08:17:45.554Z,6.22
2018-09-18T08:20:14.119Z,6.90
2018-09-18T08:22:42.654Z,5.83
2018-09-18T08:25:11.269Z,5.60
2018-09-18T08:27:39.949Z,4.87
2018-09-18T08:30:08.703Z,5.15
2018-09-18T08:32:37.356Z,5.60
2018-09-18T08:35:06.127Z,5.17
2018-09-18T08:37:34.814Z,5.22
2018-09-18T08:40:03.589Z,4.83
2018-09-18T08:42:32.286Z,5.25
2018-09-18T08:45:00.926Z,4.55
2018-09-18T08:47:29.604Z,5.80
2018-09-18T08:49:58.349Z,5.10
2018-09-18T08:52:27.028Z,5.20
2018-09-18T08:54:55.667Z,5.10
2018-09-18T08:57:24.852Z,4.83
2018-09-18T08:59:53.718Z,5.08
2018-09-18T09:02:22.407Z,5.00
2018-09-18T09:04:51.081Z,5.60
2018-09-18T09:07:19.905Z,4.97
2018-09-18T09:09:48.589Z,5.03
2018-09-18T09:12:17.338Z,5.15
2018-09-18T09:14:45.954Z,4.72
2018-09-18T09:17:14.527Z,3.72
2018-09-18T09:19:43.117Z,4.00
2018-09-18T09:22:11.772Z,3.92
2018-09-18T09:24:40.396Z,4.40
2018-09-18T09:27:09.131Z,4.33
2018-09-18T09:29:37.862Z,4.83
2018-09-18T09:32:06.923Z,4.30
2018-09-18T09:34:35.612Z,4.22
2018-09-18T09:37:04.461Z,4.35
2018-09-18T09:39:33.138Z,4.30
2018-09-18T09:42:05.607Z,3.87
2018-09-18T09:44:34.199Z,3.72
2018-09-18T09:47:02.769Z,3.60
2018-09-18T09:49:31.306Z,3.33
2018-09-18T09:51:59.849Z,3.75
2018-09-18T09:54:28.434Z,3.77
2018-09-18T09:56:57.046Z,3.90
2018-09-18T09:59:25.543Z,3.98
2018-09-18T10:01:59.596Z,3.98
2018-09-18T10:04:28.146Z,3.98
2018-09-18T10:06:56.742Z,4.05
2018-09-18T10:09:30.931Z,3.80
2018-09-18T10:11:59.599Z,3.92
2018-09-18T10:14:28.181Z,4.25
2018-09-18T10:16:56.818Z,4.33
2018-09-18T10:19:25.356Z,4.10
2018-09-18T10:21:54.040Z,4.05
2018-09-18T10:24:22.714Z,3.65
2018-09-18T10:26:51.485Z,4.30
2018-09-18T10:29:20.216Z,4.00
2018-09-18T10:31:48.961Z,4.50
2018-09-18T10:34:17.629Z,3.98
2018-09-18T10:36:46.314Z,3.83
2018-09-18T10:39:15.089Z,3.98
2018-09-18T10:41:43.815Z,4.05
2018-09-18T10:44:13.031Z,3.92
2018-09-18T10:46:41.638Z,3.62
2018-09-18T10:49:10.231Z,4.22
2018-09-18T10:51:38.786Z,3.67
2018-09-18T10:54:07.496Z,4.15
2018-09-18T10:56:36.228Z,3.55
2018-09-18T10:59:05.657Z,3.35
2018-09-18T11:01:34.371Z,3.20
2018-09-18T11:04:03.124Z,3.60
2018-09-18T11:06:31.811Z,3.98
2018-09-18T11:09:00.566Z,3.60
2018-09-18T11:11:29.310Z,3.80
2018-09-18T11:13:58.062Z,3.90
2018-09-18T11:16:26.603Z,4.15
2018-09-18T11:18:55.230Z,4.50
2018-09-18T11:21:23.880Z,4.20
2018-09-18T11:23:52.526Z,4.33
2018-09-18T11:26:21.209Z,5.05
2018-09-18T11:28:50.552Z,5.00
2018-09-18T11:31:19.378Z,6.20
2018-09-18T11:33:47.922Z,5.58
2018-09-18T11:36:16.465Z,6.05
2018-09-18T11:38:45.047Z,6.40
2018-09-18T11:41:13.604Z,5.40
2018-09-18T11:43:42.281Z,6.72
2018-09-18T11:46:10.981Z,6.97
2018-09-18T11:48:39.686Z,5.87
2018-09-18T11:51:08.357Z,5.97
2018-09-18T11:53:36.961Z,6.35
2018-09-18T11:56:11.214Z,4.97
2018-09-18T11:58:46.069Z,4.33
2018-09-18T12:01:14.726Z,4.17
2018-09-18T12:03:43.616Z,3.67
2018-09-18T12:06:12.311Z,3.40
2018-09-18T12:08:41.835Z,3.60
2018-09-18T12:11:10.716Z,3.83
2018-09-18T12:13:39.393Z,4.08
2018-09-18T12:16:08.064Z,3.70
2018-09-18T12:18:37.367Z,3.90
2018-09-18T12:21:07.173Z,3.65
2018-09-18T12:23:35.802Z,3.30
2018-09-18T12:26:04.507Z,3.35
2018-09-18T12:28:33.476Z,4.20
2018-09-18T12:31:02.314Z,3.80
2018-09-18T12:33:31.077Z,4.12
2018-09-18T12:35:59.873Z,3.40
2018-09-18T12:38:28.567Z,4.17
2018-09-18T12:40:57.307Z,4.10
2018-09-18T12:43:25.869Z,3.60
2018-09-18T12:45:54.497Z,3.98
2018-09-18T12:48:24.069Z,3.98
2018-09-18T12:50:52.797Z,3.70
2018-09-18T12:53:27.038Z,4.10
2018-09-18T12:55:56.835Z,4.25
2018-09-18T12:58:25.685Z,3.87
2018-09-18T13:00:54.441Z,4.15
2018-09-18T13:03:23.320Z,4.40
2018-09-18T13:05:52.158Z,4.72
2018-09-18T13:08:21.435Z,4.33
2018-09-18T13:10:50.188Z,4.05
2018-09-18T13:13:18.920Z,4.78
2018-09-18T13:15:47.745Z,4.47
2018-09-18T13:18:16.489Z,3.92
2018-09-18T13:20:45.309Z,4.87
2018-09-18T13:23:14.037Z,4.90
2018-09-18T13:25:42.804Z,4.83
2018-09-18T13:28:11.527Z,4.60
2018-09-18T13:30:40.314Z,6.37
2018-09-18T13:33:09.017Z,4.55
2018-09-18T13:35:38.088Z,4.60
2018-09-18T13:38:07.373Z,4.65
2018-09-18T13:40:36.556Z,5.17
2018-09-18T13:43:05.278Z,5.05
2018-09-18T13:45:33.977Z,4.70
2018-09-18T13:48:02.853Z,4.90
2018-09-18T13:50:31.856Z,4.78
2018-09-18T13:53:02.969Z,4.80
2018-09-18T13:55:31.863Z,4.97
2018-09-18T13:58:01.047Z,4.85
2018-09-18T14:00:30.012Z,5.00
2018-09-18T14:03:00.582Z,4.95
2018-09-18T14:05:29.750Z,4.95
2018-09-18T14:07:58.513Z,4.95
2018-09-18T14:10:27.444Z,5.40
2018-09-18T14:12:56.497Z,4.95
2018-09-18T14:15:25.333Z,5.05
2018-09-18T14:17:54.191Z,4.75
2018-09-18T14:20:22.968Z,4.80
2018-09-18T14:22:51.708Z,3.92
2018-09-18T14:25:21.239Z,4.10
2018-09-18T14:27:50.026Z,4.15
2018-09-18T14:30:18.762Z,3.85
2018-09-18T14:32:47.626Z,4.42
2018-09-18T14:35:16.424Z,4.30
2018-09-18T14:37:45.642Z,5.67
2018-09-18T14:40:14.369Z,16.07
2018-09-18T14:42:43.113Z,36.00
2018-09-18T14:45:11.900Z,35.17
2018-09-18T14:47:41.749Z,6.15
2018-09-18T14:50:11.229Z,3.90
2018-09-18T14:52:39.971Z,4.80
2018-09-18T14:55:08.775Z,4.90
2018-09-18T14:57:38.416Z,4.25
2018-09-18T15:00:07.243Z,3.67
2018-09-18T15:02:36.011Z,3.93
2018-09-18T15:05:04.876Z,3.87
2018-09-18T15:07:33.634Z,3.03
2018-09-18T15:10:03.353Z,3.30
2018-09-18T15:12:32.117Z,2.87
2018-09-18T15:15:06.403Z,3.73
2018-09-18T15:17:35.034Z,3.10
2018-09-18T15:20:04.596Z,7.47
2018-09-18T15:22:33.484Z,4.23
2018-09-18T15:25:02.159Z,8.53
2018-09-18T15:27:31.498Z,8.97
2018-09-18T15:30:00.074Z,6.23
2018-09-18T15:32:28.774Z,6.50
2018-09-18T15:34:57.828Z,5.93
2018-09-18T15:37:26.578Z,5.00
2018-09-18T15:39:55.927Z,4.35
2018-09-18T15:42:24.596Z,3.70
2018-09-18T15:44:53.244Z,4.30
2018-09-18T15:47:21.962Z,3.57
2018-09-18T15:49:50.774Z,3.10
2018-09-18T15:52:19.581Z,2.83
2018-09-18T15:54:48.340Z,2.70
2018-09-18T15:57:17.655Z,3.10
2018-09-18T15:59:46.485Z,3.07
2018-09-18T16:02:15.324Z,3.00
2018-09-18T16:04:44.044Z,3.90
2018-09-18T16:07:12.756Z,3.10
2018-09-18T16:09:41.473Z,3.43
2018-09-18T16:12:10.196Z,3.30
2018-09-18T16:14:38.999Z,3.27
2018-09-18T16:17:07.689Z,3.40
2018-09-18T16:19:41.920Z,3.73
2018-09-18T16:22:10.540Z,3.70
2018-09-18T16:24:39.159Z,4.00
2018-09-18T16:27:07.868Z,4.53
2018-09-18T16:29:36.616Z,4.53
2018-09-18T16:32:05.316Z,4.13
2018-09-18T16:34:34.661Z,4.27
2018-09-18T16:37:03.312Z,4.60
2018-09-18T16:39:37.379Z,4.50
2018-09-18T16:42:06.019Z,3.30
2018-09-18T16:44:45.751Z,3.00
2018-09-18T16:47:14.747Z,3.70
2018-09-18T16:49:43.464Z,3.83
2018-09-18T16:52:12.240Z,3.50
2018-09-18T16:54:41.058Z,3.83
2018-09-18T16:57:09.694Z,3.47
2018-09-18T16:59:39.067Z,3.97
2018-09-18T17:02:07.710Z,3.87
2018-09-18T17:04:36.377Z,4.17
2018-09-18T17:07:05.252Z,3.90
2018-09-18T17:09:34.016Z,4.20
2018-09-18T17:12:02.758Z,4.40
2018-09-18T17:14:31.628Z,3.97
2018-09-18T17:17:00.331Z,4.17
2018-09-18T17:19:29.601Z,4.27
2018-09-18T17:21:58.196Z,3.90
2018-09-18T17:24:38.736Z,4.23
2018-09-18T17:27:08.159Z,4.57
2018-09-18T17:29:36.972Z,4.10
2018-09-18T17:32:05.681Z,4.83
2018-09-18T17:34:34.356Z,4.20
2018-09-18T17:37:03.026Z,3.80
2018-09-18T17:39:31.657Z,4.57
2018-09-18T17:42:00.299Z,5.10
2018-09-18T17:44:29.745Z,4.70
2018-09-18T17:46:59.306Z,4.40
2018-09-18T17:49:33.611Z,4.60
2018-09-18T17:52:03.437Z,3.97
2018-09-18T17:54:32.225Z,5.00
2018-09-18T17:57:04.852Z,4.77
2018-09-18T17:59:36.198Z,4.60
2018-09-18T18:02:05.358Z,4.70
2018-09-18T18:04:34.236Z,5.13
2018-09-18T18:07:03.237Z,5.67
2018-09-18T18:09:32.092Z,5.13
2018-09-18T18:12:01.132Z,5.03
2018-09-18T18:14:36.595Z,4.80
2018-09-18T18:17:06.925Z,4.63
2018-09-18T18:19:41.509Z,5.07
2018-09-18T18:22:11.035Z,4.97
2018-09-18T18:24:45.249Z,5.83
2018-09-18T18:27:14.518Z,5.27
2018-09-18T18:29:43.367Z,5.57
2018-09-18T18:32:17.470Z,6.17
2018-09-18T18:34:46.135Z,6.40
2018-09-18T18:37:14.979Z,5.20
2018-09-18T18:39:43.731Z,5.60
2018-09-18T18:42:19.041Z,5.80
2018-09-18T18:44:47.957Z,5.53
2018-09-18T18:47:17.224Z,5.80
2018-09-18T18:49:46.011Z,6.10
2018-09-18T18:52:14.797Z,7.07
2018-09-18T18:54:43.787Z,6.43
2018-09-18T18:57:12.762Z,5.93
2018-09-18T18:59:41.561Z,5.83
2018-09-18T19:02:11.343Z,5.70
2018-09-18T19:04:40.103Z,6.00
2018-09-18T19:07:09.516Z,6.37
2018-09-18T19:09:38.231Z,6.20
2018-09-18T19:12:08.996Z,5.87
2018-09-18T19:14:38.004Z,6.30
2018-09-18T19:17:07.795Z,6.10
2018-09-18T19:19:36.460Z,6.00
2018-09-18T19:22:16.163Z,6.43
2018-09-18T19:24:44.774Z,5.87
2018-09-18T19:27:13.483Z,6.63
2018-09-18T19:29:42.241Z,6.67
2018-09-18T19:32:10.982Z,6.23
2018-09-18T19:34:40.525Z,6.50
2018-09-18T19:37:09.406Z,6.63
2018-09-18T19:39:38.239Z,6.00
2018-09-18T19:42:07.123Z,6.23
2018-09-18T19:44:35.947Z,6.13
2018-09-18T19:47:04.740Z,6.03
2018-09-18T19:49:39.652Z,6.53
2018-09-18T19:52:09.828Z,6.47
2018-09-18T19:54:44.574Z,5.90
2018-09-18T19:57:18.789Z,5.90
2018-09-18T19:59:47.417Z,6.27
2018-09-18T20:02:16.054Z,6.57
2018-09-18T20:04:44.738Z,6.70
2018-09-18T20:07:13.424Z,6.67
2018-09-18T20:09:42.180Z,7.13
2018-09-18T20:12:11.612Z,7.07
2018-09-18T20:14:40.274Z,7.33
2018-09-18T20:17:14.531Z,7.63
2018-09-18T20:19:48.765Z,7.27
2018-09-18T20:22:23.157Z,7.30
2018-09-18T20:24:51.803Z,7.67
2018-09-18T20:27:26.175Z,6.87
2018-09-18T20:29:55.630Z,7.60
2018-09-18T20:32:24.811Z,6.20
2018-09-18T20:34:54.498Z,6.67
2018-09-18T20:37:23.573Z,6.80
2018-09-18T20:39:52.304Z,7.07
2018-09-18T20:42:21.046Z,6.73
2018-09-18T20:44:50.426Z,6.20
2018-09-18T20:47:19.143Z,6.33
2018-09-18T20:49:47.799Z,6.97
2018-09-18T20:52:16.441Z,6.80
2018-09-18T20:54:45.092Z,6.40
2018-09-18T20:57:13.907Z,6.13
2018-09-18T20:59:42.689Z,6.77
2018-09-18T21:02:11.453Z,6.60
2018-09-18T21:04:40.201Z,6.63
2018-09-18T21:07:09.239Z,6.60
2018-09-18T21:09:37.999Z,6.10
2018-09-18T21:12:07.427Z,6.80
2018-09-18T21:14:36.008Z,6.20
2018-09-18T21:17:10.228Z,7.30
2018-09-18T21:19:39.443Z,7.27
2018-09-18T21:22:08.026Z,7.07
2018-09-18T21:24:36.691Z,7.47
2018-09-18T21:27:10.866Z,7.13
2018-09-18T21:29:40.121Z,7.60
2018-09-18T21:32:08.773Z,7.63
2018-09-18T21:34:37.477Z,7.37
2018-09-18T21:37:06.343Z,7.63
2018-09-18T21:39:35.067Z,8.07
2018-09-18T21:42:04.446Z,8.27
2018-09-18T21:44:34.187Z,8.43
2018-09-18T21:47:02.864Z,8.60
2018-09-18T21:49:32.286Z,8.30
2018-09-18T21:52:01.468Z,8.67
2018-09-18T21:54:30.222Z,8.30
2018-09-18T21:56:59.536Z,8.40
2018-09-18T21:59:28.244Z,8.27
2018-09-18T22:01:56.848Z,8.97
2018-09-18T22:04:25.505Z,8.60
2018-09-18T22:06:54.196Z,8.60
2018-09-18T22:09:22.876Z,8.50
2018-09-18T22:11:51.768Z,7.80
2018-09-18T22:14:20.538Z,9.07
2018-09-18T22:16:49.932Z,8.10
2018-09-18T22:19:18.618Z,8.77
2018-09-18T22:21:47.429Z,8.03
2018-09-18T22:24:16.102Z,8.43
2018-09-18T22:26:44.835Z,9.23
2018-09-18T22:29:13.546Z,8.53
2018-09-18T22:31:42.365Z,8.10
2018-09-18T22:34:11.098Z,9.00
2018-09-18T22:36:39.783Z,9.20
2018-09-18T22:39:10.408Z,8.30
2018-09-18T22:41:39.265Z,8.30
2018-09-18T22:44:08.220Z,7.90
2018-09-18T22:46:36.983Z,7.30
2018-09-18T22:49:06.128Z,7.60
2018-09-18T22:51:34.839Z,8.87
2018-09-18T22:54:03.624Z,7.97
2018-09-18T22:56:32.328Z,9.00
2018-09-18T22:59:01.132Z,8.83
2018-09-18T23:01:29.964Z,8.73
2018-09-18T23:03:58.818Z,8.80
2018-09-18T23:06:27.606Z,9.43
2018-09-18T23:08:56.309Z,9.90
2018-09-18T23:11:24.989Z,9.57
2018-09-18T23:13:53.882Z,9.23
2018-09-18T23:16:22.653Z,11.03
2018-09-18T23:18:51.530Z,11.07
2018-09-18T23:21:21.316Z,10.83
2018-09-18T23:23:50.252Z,11.30
2018-09-18T23:26:19.485Z,11.10
2018-09-18T23:28:48.041Z,11.30
2018-09-18T23:31:16.668Z,10.70
2018-09-18T23:33:45.267Z,11.43
2018-09-18T23:36:14.005Z,11.00
2018-09-18T23:38:42.686Z,11.37
2018-09-18T23:41:11.433Z,10.30
2018-09-18T23:43:40.141Z,11.47
2018-09-18T23:46:08.837Z,11.67
2018-09-18T23:48:37.594Z,11.07
2018-09-18T23:51:06.157Z,11.10
2018-09-18T23:53:34.828Z,10.73
2018-09-18T23:56:03.517Z,9.37
2018-09-18T23:58:32.563Z,9.90
